createdAt,value
2022-10-25T05:03:30.982Z,14.05
2022-10-25T05:08:53.180Z,14.00
2022-10-25T05:14:14.873Z,13.99
2022-10-25T05:19:35.988Z,13.96
2022-10-25T05:24:56.853Z,13.98
2022-10-25T05:30:17.788Z,13.90
2022-10-25T05:35:38.695Z,13.89
2022-10-25T05:41:00.792Z,13.91
2022-10-25T05:46:23.464Z,13.86
2022-10-25T05:51:44.270Z,13.85
2022-10-25T05:57:04.910Z,13.94
2022-10-25T06:02:25.657Z,14.00
2022-10-25T06:07:47.104Z,14.03
2022-10-25T06:13:08.185Z,14.08
2022-10-25T06:18:28.856Z,14.05
2022-10-25T06:23:50.940Z,14.14
2022-10-25T06:29:12.195Z,14.16
2022-10-25T06:34:33.121Z,14.15
2022-10-25T06:39:53.792Z,14.13
2022-10-25T06:45:14.353Z,14.20
2022-10-25T06:50:35.078Z,14.30
2022-10-25T06:56:04.728Z,14.32
2022-10-25T07:01:26.869Z,14.50
2022-10-25T07:06:50.191Z,14.49
2022-10-25T16:27:18.082Z,14.75
2022-10-25T16:32:39.492Z,14.57
2022-10-25T16:38:00.954Z,14.39
2022-10-25T16:43:21.917Z,14.23
2022-10-25T16:48:42.925Z,14.20
2022-10-25T16:54:04.624Z,14.10
2022-10-25T16:59:25.866Z,14.08
2022-10-25T17:04:48.713Z,14.00
2022-10-25T17:10:10.058Z,13.92
2022-10-25T17:15:32.055Z,13.85
2022-10-25T17:20:53.079Z,13.79
2022-10-25T17:26:14.586Z,13.68
2022-10-25T17:31:36.105Z,13.52
2022-10-25T17:36:56.904Z,13.44
2022-10-25T17:42:18.951Z,13.42
2022-10-25T17:47:42.635Z,13.29
2022-10-25T17:53:03.747Z,13.32
2022-10-25T17:58:24.483Z,13.33
2022-10-25T18:03:46.433Z,13.40
2022-10-25T18:09:08.798Z,13.33
2022-10-25T18:14:29.805Z,13.29
2022-10-25T18:19:50.682Z,13.23
2022-10-25T18:25:11.407Z,13.17
2022-10-25T18:30:34.006Z,13.07
2022-10-25T18:35:59.419Z,12.99
2022-10-25T18:41:23.493Z,12.97
2022-10-25T18:46:44.684Z,12.96
2022-10-25T18:52:05.981Z,13.01
2022-10-25T18:57:29.637Z,12.99
2022-10-25T19:02:53.728Z,12.94
2022-10-25T19:08:14.987Z,12.96
2022-10-25T19:13:36.387Z,12.93
2022-10-25T19:19:01.727Z,12.90
2022-10-25T19:24:22.851Z,12.94
2022-10-25T19:29:43.894Z,12.92
2022-10-25T19:35:04.776Z,12.84
2022-10-25T19:40:26.027Z,12.89
2022-10-25T19:45:46.870Z,12.89
2022-10-25T19:51:10.268Z,12.86
2022-10-25T19:56:31.157Z,12.82
2022-10-25T20:01:51.888Z,12.83
2022-10-25T20:07:12.883Z,12.78
2022-10-25T20:12:33.864Z,12.74
2022-10-25T20:17:54.571Z,12.76
2022-10-25T20:23:16.472Z,12.74
2022-10-25T20:28:37.452Z,12.65
2022-10-25T20:33:59.168Z,12.58
2022-10-25T20:39:19.872Z,12.53
2022-10-25T20:44:40.857Z,12.54
